createdAt,value
2023-02-25T00:01:51.312Z,12.30
2023-02-25T00:04:24.237Z,16.40
2023-02-25T00:06:52.450Z,14.60
2023-02-25T00:09:20.730Z,17.10
2023-02-25T00:11:48.943Z,14.33
2023-02-25T00:14:17.166Z,13.30
2023-02-25T00:16:45.786Z,16.80
2023-02-25T00:19:14.087Z,15.77
2023-02-25T00:21:43.760Z,15.43
2023-02-25T00:24:16.969Z,18.40
2023-02-25T00:26:45.511Z,19.40
2023-02-25T00:29:13.721Z,18.37
2023-02-25T00:31:42.175Z,14.77
2023-02-25T00:34:10.613Z,17.80
2023-02-25T00:36:39.827Z,16.03
2023-02-25T00:39:10.186Z,13.97
2023-02-25T00:41:38.569Z,17.17
2023-02-25T00:44:07.152Z,16.30
2023-02-25T00:46:35.945Z,21.57
2023-02-25T00:49:05.148Z,19.33
2023-02-25T00:51:34.235Z,14.57
2023-02-25T00:54:02.697Z,16.77
2023-02-25T00:56:33.442Z,11.87
2023-02-25T00:59:01.788Z,13.37
2023-02-25T01:01:31.038Z,12.97
2023-02-25T01:03:59.482Z,16.80
2023-02-25T01:06:28.628Z,12.27
2023-02-25T01:08:57.082Z,16.03
2023-02-25T01:11:29.218Z,13.90
2023-02-25T01:14:00.239Z,13.63
2023-02-25T01:16:29.621Z,12.27
2023-02-25T01:18:59.115Z,12.20
2023-02-25T01:21:31.157Z,14.13
2023-02-25T01:24:01.183Z,11.60
2023-02-25T01:26:30.330Z,13.57
2023-02-25T01:29:00.063Z,18.53
2023-02-25T01:31:29.496Z,12.77
2023-02-25T01:33:59.317Z,16.57
2023-02-25T01:36:28.027Z,12.53
2023-02-25T01:38:56.399Z,12.97
2023-02-25T01:41:25.081Z,17.13
2023-02-25T01:44:06.129Z,11.70
2023-02-25T01:46:34.763Z,17.00
2023-02-25T01:49:03.761Z,15.43
2023-02-25T01:51:34.083Z,16.40
2023-02-25T01:54:03.670Z,17.23
2023-02-25T01:56:32.585Z,16.57
2023-02-25T01:59:01.233Z,12.47
2023-02-25T02:01:33.794Z,17.30
2023-02-25T02:04:04.569Z,13.13
2023-02-25T02:06:38.435Z,14.73
2023-02-25T02:09:12.193Z,15.07
2023-02-25T02:11:41.374Z,17.70
2023-02-25T02:14:10.598Z,13.77
2023-02-25T02:16:46.795Z,19.30
2023-02-25T02:19:21.424Z,16.20
2023-02-25T02:21:56.163Z,18.20
2023-02-25T02:24:43.852Z,14.10
2023-02-25T02:27:12.800Z,16.87
2023-02-25T02:29:58.871Z,15.13
2023-02-25T02:32:38.415Z,18.33
2023-02-25T02:35:13.285Z,12.03
2023-02-25T02:37:44.223Z,17.50
2023-02-25T02:40:31.164Z,13.70
2023-02-25T02:43:06.716Z,15.73
2023-02-25T02:45:40.994Z,15.07
2023-02-25T02:48:11.662Z,16.53
2023-02-25T02:50:41.821Z,19.57
2023-02-25T02:53:13.268Z,18.87
2023-02-25T02:55:42.740Z,15.17
2023-02-25T02:58:11.757Z,13.30
2023-02-25T03:00:42.760Z,16.80
2023-02-25T03:03:14.775Z,14.53
2023-02-25T03:05:44.457Z,14.97
2023-02-25T03:08:14.357Z,14.70
2023-02-25T03:10:42.843Z,16.93
2023-02-25T03:13:11.108Z,13.93
2023-02-25T03:15:40.259Z,15.83
2023-02-25T03:18:12.628Z,13.33
2023-02-25T03:20:44.434Z,16.73
2023-02-25T03:23:14.738Z,15.43
2023-02-25T03:25:47.615Z,19.53
2023-02-25T03:28:21.156Z,18.33
2023-02-25T03:30:50.462Z,13.30
2023-02-25T03:33:23.278Z,16.00
2023-02-25T03:35:53.287Z,17.83
2023-02-25T03:38:22.799Z,14.33
2023-02-25T03:40:51.792Z,13.70
2023-02-25T03:43:23.928Z,15.57
2023-02-25T03:45:52.201Z,12.70
2023-02-25T03:48:20.931Z,12.10
2023-02-25T03:50:50.366Z,15.57
2023-02-25T03:53:20.007Z,13.07
2023-02-25T03:55:48.608Z,15.07
2023-02-25T03:58:16.831Z,18.70
2023-02-25T04:00:46.330Z,11.63
2023-02-25T04:03:14.665Z,14.97
2023-02-25T04:05:42.916Z,17.90
2023-02-25T04:08:16.299Z,18.60
2023-02-25T04:10:46.100Z,22.10
2023-02-25T04:13:15.998Z,24.50
2023-02-25T04:15:44.365Z,21.40
2023-02-25T04:18:13.231Z,19.53
2023-02-25T04:20:41.877Z,16.17
2023-02-25T04:23:10.179Z,19.43
2023-02-25T04:25:38.448Z,21.23
2023-02-25T04:28:08.176Z,15.47
2023-02-25T04:30:36.436Z,18.03
2023-02-25T04:33:04.897Z,19.87
2023-02-25T04:35:33.115Z,16.67
2023-02-25T04:38:01.366Z,20.50
2023-02-25T04:40:29.702Z,15.43
2023-02-25T04:42:57.983Z,19.53
2023-02-25T04:45:27.666Z,20.20
2023-02-25T04:47:57.794Z,16.70
2023-02-25T04:50:26.484Z,13.00
2023-02-25T04:52:54.692Z,18.20
2023-02-25T04:55:22.945Z,14.67
2023-02-25T04:57:51.157Z,12.57
2023-02-25T05:00:20.985Z,16.87
2023-02-25T05:02:50.736Z,23.10
2023-02-25T05:05:19.144Z,14.20
2023-02-25T05:07:47.434Z,17.00
2023-02-25T05:10:16.084Z,15.00
2023-02-25T05:12:44.384Z,17.37
2023-02-25T05:15:13.214Z,17.43
2023-02-25T05:17:41.529Z,13.53
2023-02-25T05:20:13.009Z,15.80
2023-02-25T05:22:41.612Z,17.57
2023-02-25T05:25:10.429Z,14.30
2023-02-25T05:27:38.708Z,18.70
2023-02-25T05:30:07.497Z,15.00
2023-02-25T05:32:35.907Z,21.37
2023-02-25T05:35:04.168Z,17.13
2023-02-25T05:37:34.374Z,18.10
2023-02-25T05:40:02.565Z,19.70
2023-02-25T05:42:30.964Z,16.37
2023-02-25T05:44:59.172Z,32.60
2023-02-25T05:47:27.453Z,19.83
2023-02-25T05:49:55.726Z,16.60
2023-02-25T05:52:23.948Z,25.73
2023-02-25T05:54:53.491Z,24.20
2023-02-25T05:57:24.024Z,20.50
2023-02-25T05:59:52.303Z,14.77
2023-02-25T06:02:20.502Z,18.70
2023-02-25T06:04:48.990Z,17.60
2023-02-25T06:07:17.181Z,19.57
2023-02-25T06:09:45.681Z,19.50
2023-02-25T06:12:15.230Z,20.30
2023-02-25T06:14:43.427Z,18.93
2023-02-25T06:17:11.820Z,17.17
2023-02-25T06:19:40.069Z,22.07
2023-02-25T06:22:08.333Z,19.37
2023-02-25T06:24:36.655Z,19.63
2023-02-25T06:27:04.902Z,20.07
2023-02-25T06:29:34.461Z,22.00
2023-02-25T06:32:02.798Z,16.60
2023-02-25T06:34:34.391Z,15.37
2023-02-25T06:37:02.613Z,15.67
2023-02-25T06:39:30.807Z,16.60
2023-02-25T06:41:59.009Z,18.33
2023-02-25T06:44:29.196Z,15.73
2023-02-25T06:46:58.799Z,17.30
2023-02-25T06:49:26.984Z,18.07
2023-02-25T06:51:55.170Z,19.53
2023-02-25T06:54:24.307Z,18.13
2023-02-25T06:56:53.343Z,14.83
2023-02-25T06:59:22.018Z,6.70
2023-02-25T07:01:50.355Z,8.07
2023-02-25T07:04:20.391Z,6.60
2023-02-25T07:06:48.727Z,5.97
2023-02-25T07:09:16.957Z,5.57
2023-02-25T07:11:45.263Z,10.80
2023-02-25T07:14:14.264Z,13.03
2023-02-25T07:16:42.561Z,13.50
2023-02-25T07:19:10.822Z,16.90
2023-02-25T07:21:40.555Z,20.23
2023-02-25T07:24:08.979Z,11.83
2023-02-25T07:26:38.247Z,14.43
2023-02-25T07:29:07.815Z,13.37
2023-02-25T07:31:36.116Z,12.53
2023-02-25T07:34:04.489Z,15.37
2023-02-25T07:36:33.388Z,12.83
2023-02-25T07:39:04.155Z,10.63
2023-02-25T07:41:32.360Z,9.33
2023-02-25T07:44:00.617Z,10.93
2023-02-25T07:46:28.948Z,7.57
2023-02-25T07:48:57.191Z,9.83
2023-02-25T07:51:26.384Z,11.23
2023-02-25T07:53:55.745Z,10.47
2023-02-25T07:56:26.314Z,8.07
2023-02-25T07:58:54.490Z,5.27
2023-02-25T08:01:24.662Z,7.67
2023-02-25T08:03:53.607Z,8.60
2023-02-25T08:06:22.200Z,4.70
2023-02-25T08:08:52.157Z,5.40
2023-02-25T08:11:21.586Z,5.00
2023-02-25T08:13:51.334Z,5.73
2023-02-25T08:16:20.635Z,4.93
2023-02-25T08:18:49.725Z,5.70
2023-02-25T08:21:20.203Z,6.27
2023-02-25T08:23:49.034Z,6.07
2023-02-25T08:26:18.436Z,7.83
2023-02-25T08:28:46.942Z,8.30
2023-02-25T08:31:16.860Z,10.13
2023-02-25T08:33:49.667Z,6.53
2023-02-25T08:36:20.534Z,5.63
2023-02-25T08:38:50.115Z,5.60
2023-02-25T08:41:18.476Z,5.60
2023-02-25T08:43:49.773Z,5.80
2023-02-25T08:46:21.090Z,4.70
2023-02-25T08:48:50.430Z,5.10
2023-02-25T08:51:19.125Z,5.43
2023-02-25T08:53:47.320Z,7.33
2023-02-25T08:56:16.984Z,4.13
2023-02-25T08:58:45.739Z,3.17
2023-02-25T09:01:14.928Z,3.80
2023-02-25T09:03:51.168Z,5.27
2023-02-25T09:06:19.873Z,3.57
2023-02-25T09:08:48.136Z,7.03
2023-02-25T09:11:16.377Z,5.30
2023-02-25T09:13:44.659Z,9.90
2023-02-25T09:16:17.217Z,6.00
2023-02-25T09:18:46.932Z,7.10
2023-02-25T09:21:15.583Z,10.30
2023-02-25T09:23:44.083Z,11.67
2023-02-25T09:26:12.562Z,9.27
2023-02-25T09:28:41.317Z,4.40
2023-02-25T09:31:09.588Z,6.07
2023-02-25T09:33:38.336Z,7.47
2023-02-25T09:36:09.074Z,7.73
2023-02-25T09:38:37.492Z,5.47
2023-02-25T09:41:06.437Z,5.30
2023-02-25T09:43:38.500Z,5.70
2023-02-25T09:46:08.125Z,6.30
2023-02-25T09:48:37.703Z,5.43
2023-02-25T09:51:08.542Z,31.10
2023-02-25T09:53:40.199Z,3.63
2023-02-25T09:56:09.236Z,6.73
2023-02-25T09:58:40.641Z,8.43
2023-02-25T10:01:16.035Z,6.73
2023-02-25T10:03:50.507Z,5.37
2023-02-25T10:06:21.702Z,7.43
2023-02-25T10:08:53.611Z,7.70
2023-02-25T10:11:27.536Z,9.37
2023-02-25T10:13:58.277Z,6.77
2023-02-25T10:16:35.261Z,8.23
2023-02-25T10:19:09.571Z,11.17
2023-02-25T10:21:44.393Z,7.77
2023-02-25T10:24:20.398Z,8.00
2023-02-25T10:26:50.941Z,6.97
2023-02-25T10:29:23.713Z,6.40
2023-02-25T10:31:55.709Z,7.47
2023-02-25T10:34:26.131Z,8.37
2023-02-25T10:36:56.103Z,5.60
2023-02-25T10:39:25.850Z,4.13
2023-02-25T10:41:54.163Z,4.00
2023-02-25T10:44:22.433Z,3.77
2023-02-25T10:46:53.281Z,7.33
2023-02-25T10:49:23.063Z,5.47
2023-02-25T10:52:04.502Z,4.93
2023-02-25T10:54:35.275Z,9.37
2023-02-25T10:57:09.411Z,20.37
2023-02-25T10:59:38.530Z,8.17
2023-02-25T11:02:19.089Z,8.07
2023-02-25T11:04:48.455Z,5.07
2023-02-25T11:07:30.100Z,4.40
2023-02-25T11:10:14.708Z,2.83
2023-02-25T11:12:44.089Z,7.23
2023-02-25T11:15:43.667Z,5.07
2023-02-25T11:18:17.970Z,5.60
2023-02-25T11:20:50.673Z,3.67
2023-02-25T11:23:22.589Z,5.00
2023-02-25T11:25:53.810Z,2.03
2023-02-25T11:28:28.991Z,3.60
2023-02-25T11:31:06.018Z,3.80
2023-02-25T11:33:35.982Z,6.93
2023-02-25T11:36:04.861Z,5.63
2023-02-25T11:38:34.735Z,2.57
2023-02-25T11:41:04.375Z,3.83
2023-02-25T11:43:37.648Z,4.10
2023-02-25T11:46:08.341Z,4.53
2023-02-25T11:48:46.842Z,4.73
2023-02-25T11:51:18.875Z,3.43
2023-02-25T11:53:55.165Z,2.67
2023-02-25T11:56:27.288Z,2.27
2023-02-25T11:59:12.667Z,2.40
2023-02-25T12:01:57.361Z,1.33
2023-02-25T12:04:36.905Z,4.20
2023-02-25T12:07:14.520Z,3.80
2023-02-25T12:09:49.667Z,2.90
2023-02-25T12:12:26.547Z,2.53
2023-02-25T12:15:12.272Z,2.53
2023-02-25T12:17:59.113Z,1.60
2023-02-25T12:20:46.075Z,1.27
2023-02-25T12:23:32.393Z,3.10
2023-02-25T12:26:07.855Z,1.83
2023-02-25T12:28:49.755Z,3.43
2023-02-25T12:31:36.339Z,2.80
2023-02-25T12:34:10.457Z,7.40
2023-02-25T12:36:59.548Z,3.77
2023-02-25T12:39:42.226Z,2.57
2023-02-25T12:42:19.642Z,3.77
2023-02-25T12:44:59.422Z,2.43
2023-02-25T12:47:36.807Z,3.20
2023-02-25T12:50:25.712Z,2.00
2023-02-25T12:53:00.707Z,8.40
2023-02-25T12:55:37.749Z,2.63
2023-02-25T12:58:16.717Z,3.57
2023-02-25T13:01:04.155Z,4.07
2023-02-25T13:03:43.724Z,1.67
2023-02-25T13:06:28.545Z,2.27
2023-02-25T13:09:15.607Z,4.53
2023-02-25T13:12:10.442Z,4.77
2023-02-25T13:14:48.043Z,4.13
2023-02-25T13:17:25.232Z,3.10
2023-02-25T13:19:58.110Z,3.13
2023-02-25T13:22:38.433Z,3.10
2023-02-25T13:25:14.571Z,3.43
2023-02-25T13:27:58.757Z,2.63
2023-02-25T13:30:39.806Z,3.67
2023-02-25T13:33:19.940Z,3.50
2023-02-25T13:35:54.748Z,4.40
2023-02-25T13:38:32.680Z,3.20
2023-02-25T13:41:09.449Z,3.57
2023-02-25T13:43:50.136Z,3.10
2023-02-25T13:46:28.045Z,3.67
2023-02-25T13:49:11.348Z,2.63
2023-02-25T13:51:48.444Z,10.60
2023-02-25T13:54:30.214Z,3.87
2023-02-25T13:57:03.179Z,5.43
2023-02-25T13:59:45.350Z,6.87
2023-02-25T14:02:25.388Z,4.70
2023-02-25T14:05:05.742Z,3.27
2023-02-25T14:07:38.071Z,2.67
2023-02-25T14:10:18.980Z,2.13
2023-02-25T14:12:55.826Z,6.07
2023-02-25T14:15:34.208Z,2.87
2023-02-25T14:18:12.160Z,4.97
2023-02-25T14:20:51.364Z,4.00
2023-02-25T14:23:26.898Z,2.23
2023-02-25T14:26:00.368Z,3.03
2023-02-25T14:28:32.858Z,3.23
2023-02-25T14:31:08.829Z,3.67
2023-02-25T14:33:46.084Z,2.80
2023-02-25T14:36:27.542Z,3.50
2023-02-25T14:39:02.695Z,3.53
2023-02-25T14:41:34.859Z,5.67
2023-02-25T14:44:05.292Z,4.40
2023-02-25T14:46:35.970Z,3.40
2023-02-25T14:49:07.696Z,3.03
2023-02-25T14:51:53.666Z,2.87
2023-02-25T14:54:39.458Z,3.87
2023-02-25T14:57:24.738Z,5.87
2023-02-25T15:00:10.698Z,3.77
2023-02-25T15:02:47.624Z,2.63
2023-02-25T15:05:25.876Z,4.60
2023-02-25T15:08:10.842Z,4.27
2023-02-25T15:10:45.613Z,3.43
2023-02-25T15:13:34.413Z,3.30
2023-02-25T15:16:18.142Z,3.63
2023-02-25T15:18:59.882Z,2.37
2023-02-25T15:21:37.153Z,3.63
2023-02-25T15:24:05.968Z,2.93
2023-02-25T15:26:43.776Z,3.17
2023-02-25T15:29:20.991Z,3.70
2023-02-25T15:32:04.253Z,4.63
2023-02-25T15:34:36.474Z,1.70
2023-02-25T15:37:35.010Z,3.10
2023-02-25T15:40:06.792Z,5.00
2023-02-25T15:42:46.133Z,5.50
2023-02-25T15:45:32.651Z,2.30
2023-02-25T15:48:19.058Z,2.00
2023-02-25T15:50:54.156Z,3.80
2023-02-25T15:53:37.387Z,4.20
2023-02-25T15:56:25.548Z,2.93
2023-02-25T15:58:55.299Z,2.07
2023-02-25T16:01:24.668Z,5.67
2023-02-25T16:03:53.486Z,3.53
2023-02-25T16:06:23.024Z,3.50
2023-02-25T16:08:53.412Z,5.70
2023-02-25T16:11:26.785Z,3.90
2023-02-25T16:13:56.706Z,3.63
2023-02-25T16:16:25.895Z,5.37
2023-02-25T16:18:55.175Z,7.03
2023-02-25T16:21:27.237Z,4.40
2023-02-25T16:23:55.871Z,8.93
2023-02-25T16:26:31.292Z,3.20
2023-02-25T16:29:06.325Z,5.53
2023-02-25T16:31:37.251Z,4.83
2023-02-25T16:34:07.410Z,6.20
2023-02-25T16:36:36.909Z,5.07
2023-02-25T16:39:06.788Z,5.93
2023-02-25T16:41:38.679Z,8.03
2023-02-25T16:44:09.058Z,3.40
2023-02-25T16:46:39.116Z,4.87
2023-02-25T16:51:46.877Z,8.60
2023-02-25T16:54:17.617Z,6.50
2023-02-25T16:56:47.520Z,3.97
2023-02-25T16:59:21.675Z,4.53
2023-02-25T17:01:51.537Z,5.50
2023-02-25T17:04:20.717Z,5.23
2023-02-25T17:07:03.880Z,9.07
2023-02-25T17:09:32.213Z,6.07
2023-02-25T17:12:02.643Z,4.07
2023-02-25T17:14:33.317Z,7.63
2023-02-25T17:17:01.825Z,3.77
2023-02-25T17:19:30.511Z,5.40
2023-02-25T17:22:00.472Z,4.13
2023-02-25T17:24:31.132Z,8.80
2023-02-25T17:26:59.571Z,5.23
2023-02-25T17:29:37.203Z,4.43
2023-02-25T17:32:14.112Z,5.07
2023-02-25T17:34:43.818Z,7.53
2023-02-25T17:37:13.451Z,5.70
2023-02-25T17:39:44.248Z,5.53
2023-02-25T17:42:35.486Z,6.27
2023-02-25T17:45:09.244Z,8.17
2023-02-25T17:47:38.455Z,6.90
2023-02-25T17:50:15.006Z,11.87
2023-02-25T17:52:43.395Z,6.93
2023-02-25T17:55:22.874Z,7.80
2023-02-25T17:57:51.449Z,7.83
2023-02-25T18:00:26.241Z,16.27
2023-02-25T18:03:10.094Z,11.50
2023-02-25T18:05:50.365Z,7.37
2023-02-25T18:08:19.775Z,11.33
2023-02-25T18:10:49.740Z,6.73
2023-02-25T18:13:23.115Z,6.73
2023-02-25T18:16:15.759Z,7.33
2023-02-25T18:18:44.286Z,7.43
2023-02-25T18:21:13.392Z,9.67
2023-02-25T18:23:42.320Z,7.17
2023-02-25T18:26:13.344Z,6.00
2023-02-25T18:28:42.133Z,7.90
2023-02-25T18:31:14.624Z,3.27
2023-02-25T18:33:44.115Z,7.10
2023-02-25T18:36:18.430Z,3.43
2023-02-25T18:38:48.060Z,7.00
2023-02-25T18:41:17.125Z,10.97
2023-02-25T18:43:45.624Z,7.00
2023-02-25T18:46:15.659Z,6.47
2023-02-25T18:48:44.376Z,6.00
2023-02-25T18:51:15.281Z,4.60
2023-02-25T18:53:44.264Z,5.60
2023-02-25T18:56:15.023Z,10.80
2023-02-25T18:58:48.086Z,4.37
2023-02-25T19:01:25.765Z,4.77
2023-02-25T19:04:00.651Z,6.23
2023-02-25T19:06:31.173Z,5.50
2023-02-25T19:09:02.060Z,11.97
2023-02-25T19:11:33.552Z,5.63
2023-02-25T19:14:02.308Z,7.30
2023-02-25T19:16:33.287Z,7.40
2023-02-25T19:19:02.902Z,6.20
2023-02-25T19:21:32.167Z,8.30
2023-02-25T19:24:00.991Z,5.23
2023-02-25T19:26:30.124Z,6.23
2023-02-25T19:28:58.671Z,7.67
2023-02-25T19:31:27.736Z,8.07
2023-02-25T19:33:57.681Z,4.17
2023-02-25T19:36:27.318Z,9.17
2023-02-25T19:38:56.007Z,7.67
2023-02-25T19:41:28.454Z,11.10
2023-02-25T19:43:57.032Z,6.37
2023-02-25T19:46:25.964Z,7.00
2023-02-25T19:48:54.671Z,7.03
2023-02-25T19:51:24.427Z,8.13
2023-02-25T19:53:53.392Z,10.07
2023-02-25T19:56:22.180Z,8.10
2023-02-25T19:58:50.975Z,7.57
2023-02-25T20:01:19.850Z,6.90
2023-02-25T20:03:49.480Z,7.23
2023-02-25T20:06:20.674Z,10.10
2023-02-25T20:08:56.390Z,6.83
2023-02-25T20:11:24.867Z,9.60
2023-02-25T20:13:53.630Z,5.73
2023-02-25T20:16:24.484Z,6.10
2023-02-25T20:18:53.193Z,6.00
2023-02-25T20:21:22.147Z,7.70
2023-02-25T20:23:52.039Z,7.37
2023-02-25T20:26:24.509Z,3.30
2023-02-25T20:28:54.625Z,7.07
2023-02-25T20:31:23.737Z,3.80
2023-02-25T20:33:53.608Z,7.93
2023-02-25T20:36:24.065Z,5.77
2023-02-25T20:39:02.043Z,5.60
2023-02-25T20:41:30.830Z,6.27
2023-02-25T20:43:59.498Z,4.20
2023-02-25T20:46:28.982Z,3.80
2023-02-25T20:48:57.846Z,4.73
2023-02-25T20:51:26.745Z,6.47
2023-02-25T20:53:57.596Z,5.53
2023-02-25T20:56:28.380Z,4.50
2023-02-25T20:58:59.514Z,6.20
2023-02-25T21:01:31.706Z,5.33
2023-02-25T21:04:01.028Z,6.33
2023-02-25T21:06:30.366Z,5.67
2023-02-25T21:09:01.499Z,6.43
2023-02-25T21:11:30.419Z,6.20
2023-02-25T21:13:58.750Z,6.10
2023-02-25T21:16:28.235Z,3.90
2023-02-25T21:18:58.751Z,4.30
2023-02-25T21:21:28.341Z,4.87
2023-02-25T21:23:56.867Z,4.10
2023-02-25T21:26:27.488Z,4.10
2023-02-25T21:28:56.142Z,7.77
2023-02-25T21:31:24.785Z,9.70
2023-02-25T21:33:54.868Z,4.70
2023-02-25T21:36:23.638Z,6.53
2023-02-25T21:38:53.755Z,5.80
2023-02-25T21:41:22.508Z,6.47
2023-02-25T21:43:54.106Z,3.00
2023-02-25T21:46:22.743Z,2.67
2023-02-25T21:48:53.493Z,6.60
2023-02-25T21:51:26.064Z,2.13
2023-02-25T21:53:55.683Z,4.93
2023-02-25T21:56:25.116Z,3.43
2023-02-25T21:58:56.380Z,3.80
2023-02-25T22:01:26.482Z,3.93
2023-02-25T22:03:55.460Z,5.90
2023-02-25T22:06:24.893Z,4.80
2023-02-25T22:08:54.196Z,5.80
2023-02-25T22:11:23.784Z,2.90
2023-02-25T22:13:52.893Z,2.50
2023-02-25T22:16:23.860Z,7.67
2023-02-25T22:18:52.790Z,4.03
2023-02-25T22:21:22.307Z,5.13
2023-02-25T22:23:51.212Z,4.90
2023-02-25T22:26:21.035Z,4.07
2023-02-25T22:28:49.824Z,3.67
2023-02-25T22:31:19.192Z,3.50
2023-02-25T22:33:49.546Z,4.50
2023-02-25T22:36:18.901Z,3.60
2023-02-25T22:38:49.783Z,2.70
2023-02-25T22:41:22.675Z,4.27
2023-02-25T22:43:52.300Z,3.37
2023-02-25T22:46:24.379Z,3.73
2023-02-25T22:48:54.897Z,4.60
2023-02-25T22:51:24.500Z,6.47
2023-02-25T22:53:53.396Z,3.20
2023-02-25T22:56:22.673Z,4.97
2023-02-25T22:58:51.845Z,6.33
2023-02-25T23:01:21.419Z,2.43
2023-02-25T23:03:51.280Z,6.57
2023-02-25T23:06:34.224Z,5.33
2023-02-25T23:09:11.779Z,2.60
2023-02-25T23:11:41.875Z,4.43
2023-02-25T23:14:10.427Z,4.67
2023-02-25T23:16:40.805Z,7.67
2023-02-25T23:19:10.744Z,3.13
2023-02-25T23:21:41.172Z,4.87
2023-02-25T23:24:14.633Z,3.40
2023-02-25T23:26:43.782Z,3.30
2023-02-25T23:29:13.383Z,5.00
2023-02-25T23:31:44.896Z,4.47
2023-02-25T23:34:14.667Z,4.63
2023-02-25T23:36:45.617Z,4.67
2023-02-25T23:39:15.449Z,7.07
2023-02-25T23:41:52.529Z,5.27
2023-02-25T23:44:23.437Z,4.60
2023-02-25T23:46:52.546Z,3.50
2023-02-25T23:49:21.028Z,4.30
2023-02-25T23:51:50.780Z,2.93
2023-02-25T23:54:20.557Z,3.13
2023-02-25T23:56:49.217Z,4.77
2023-02-25T23:59:18.014Z,3.33
